sensor_id;sensor_type;location;lat;lon;timestamp;temperature;humidity
19027;DHT22;9646;52.034;5.554;2024-03-23T00:54:16;7.60;99.90
19027;DHT22;9646;52.034;5.554;2024-03-23T00:56:43;7.60;99.90
19027;DHT22;9646;52.034;5.554;2024-03-23T00:59:09;7.60;99.90
19027;DHT22;9646;52.034;5.554;2024-03-23T01:01:36;7.60;99.90
19027;DHT22;9646;52.034;5.554;2024-03-23T01:04:02;7.50;99.90
19027;DHT22;9646;52.034;5.554;2024-03-23T01:06:29;7.60;99.90
19027;DHT22;9646;52.034;5.554;2024-03-23T01:08:55;7.60;99.90
19027;DHT22;9646;52.034;5.554;2024-03-23T01:11:23;7.70;99.90
19027;DHT22;9646;52.034;5.554;2024-03-23T01:13:49;7.70;99.90
19027;DHT22;9646;52.034;5.554;2024-03-23T01:16:18;7.60;99.90
19027;DHT22;9646;52.034;5.554;2024-03-23T01:18:46;7.70;99.90
19027;DHT22;9646;52.034;5.554;2024-03-23T01:21:14;7.70;99.90
19027;DHT22;9646;52.034;5.554;2024-03-23T01:23:46;7.80;99.90
19027;DHT22;9646;52.034;5.554;2024-03-23T01:26:12;7.70;99.90
19027;DHT22;9646;52.034;5.554;2024-03-23T01:28:40;7.70;99.90
19027;DHT22;9646;52.034;5.554;2024-03-23T01:31:06;7.70;99.90
19027;DHT22;9646;52.034;5.554;2024-03-23T01:33:33;7.70;99.90
19027;DHT22;9646;52.034;5.554;2024-03-23T01:35:58;7.70;99.90
19027;DHT22;9646;52.034;5.554;2024-03-23T01:38:25;7.80;99.90
19027;DHT22;9646;52.034;5.554;2024-03-23T01:40:56;7.80;99.90
19027;DHT22;9646;52.034;5.554;2024-03-23T01:43:23;7.70;99.90
19027;DHT22;9646;52.034;5.554;2024-03-23T01:45:50;7.80;99.90
19027;DHT22;9646;52.034;5.554;2024-03-23T01:48:19;7.70;99.90
19027;DHT22;9646;52.034;5.554;2024-03-23T01:50:45;7.70;99.90
19027;DHT22;9646;52.034;5.554;2024-03-23T01:53:14;7.80;99.90
19027;DHT22;9646;52.034;5.554;2024-03-23T01:55:43;7.70;99.90
19027;DHT22;9646;52.034;5.554;2024-03-23T01:58:09;7.70;99.90
19027;DHT22;9646;52.034;5.554;2024-03-23T02:00:35;7.80;99.90
19027;DHT22;9646;52.034;5.554;2024-03-23T02:03:24;7.80;99.90
19027;DHT22;9646;52.034;5.554;2024-03-23T02:05:50;7.80;99.90
19027;DHT22;9646;52.034;5.554;2024-03-23T02:08:17;7.70;99.90
19027;DHT22;9646;52.034;5.554;2024-03-23T02:10:44;7.70;99.90
19027;DHT22;9646;52.034;5.554;2024-03-23T02:13:11;7.60;99.90
19027;DHT22;9646;52.034;5.554;2024-03-23T02:15:39;7.50;99.90
19027;DHT22;9646;52.034;5.554;2024-03-23T02:18:07;7.50;99.90
19027;DHT22;9646;52.034;5.554;2024-03-23T02:20:35;7.50;99.90
19027;DHT22;9646;52.034;5.554;2024-03-23T02:23:03;7.50;99.90
19027;DHT22;9646;52.034;5.554;2024-03-23T02:25:29;7.40;99.90
19027;DHT22;9646;52.034;5.554;2024-03-23T02:27:56;7.40;99.90
19027;DHT22;9646;52.034;5.554;2024-03-23T02:30:22;7.30;99.90
19027;DHT22;9646;52.034;5.554;2024-03-23T02:32:48;7.20;99.90
19027;DHT22;9646;52.034;5.554;2024-03-23T02:35:14;7.20;99.90
19027;DHT22;9646;52.034;5.554;2024-03-23T02:37:41;7.20;99.90
19027;DHT22;9646;52.034;5.554;2024-03-23T02:40:08;7.10;99.90
19027;DHT22;9646;52.034;5.554;2024-03-23T02:42:36;7.10;99.90
19027;DHT22;9646;52.034;5.554;2024-03-23T02:45:02;7.20;99.90
19027;DHT22;9646;52.034;5.554;2024-03-23T02:47:30;7.20;99.90
19027;DHT22;9646;52.034;5.554;2024-03-23T02:49:56;7.10;99.90
19027;DHT22;9646;52.034;5.554;2024-03-23T02:52:22;7.00;99.90
19027;DHT22;9646;52.034;5.554;2024-03-23T02:54:48;7.00;99.90
19027;DHT22;9646;52.034;5.554;2024-03-23T02:57:16;7.00;99.90
19027;DHT22;9646;52.034;5.554;2024-03-23T02:59:42;6.90;99.90
19027;DHT22;9646;52.034;5.554;2024-03-23T03:02:09;6.90;99.90
19027;DHT22;9646;52.034;5.554;2024-03-23T03:04:35;6.90;99.90
19027;DHT22;9646;52.034;5.554;2024-03-23T03:07:02;6.90;99.90
19027;DHT22;9646;52.034;5.554;2024-03-23T03:09:29;6.90;99.90
19027;DHT22;9646;52.034;5.554;2024-03-23T03:11:56;7.00;99.90
19027;DHT22;9646;52.034;5.554;2024-03-23T03:14:24;7.00;99.90
19027;DHT22;9646;52.034;5.554;2024-03-23T03:16:50;6.90;99.90
19027;DHT22;9646;52.034;5.554;2024-03-23T03:19:16;7.00;99.90
19027;DHT22;9646;52.034;5.554;2024-03-23T03:21:43;6.80;99.90
19027;DHT22;9646;52.034;5.554;2024-03-23T03:24:09;6.80;99.90
19027;DHT22;9646;52.034;5.554;2024-03-23T03:26:36;6.80;99.90
19027;DHT22;9646;52.034;5.554;2024-03-23T03:29:02;6.80;99.90
19027;DHT22;9646;52.034;5.554;2024-03-23T03:31:31;6.80;99.90
19027;DHT22;9646;52.034;5.554;2024-03-23T03:33:57;6.70;99.90
19027;DHT22;9646;52.034;5.554;2024-03-23T03:36:24;6.70;99.90
19027;DHT22;9646;52.034;5.554;2024-03-23T03:38:49;6.80;99.90
19027;DHT22;9646;52.034;5.554;2024-03-23T03:41:17;6.70;99.90
19027;DHT22;9646;52.034;5.554;2024-03-23T03:43:43;6.70;99.90
19027;DHT22;9646;52.034;5.554;2024-03-23T03:46:10;6.70;99.90
19027;DHT22;9646;52.034;5.554;2024-03-23T03:48:38;6.60;99.90
19027;DHT22;9646;52.034;5.554;2024-03-23T03:51:05;6.60;99.90
19027;DHT22;9646;52.034;5.554;2024-03-23T03:53:31;6.50;99.90
19027;DHT22;9646;52.034;5.554;2024-03-23T03:56:00;6.50;99.90
19027;DHT22;9646;52.034;5.554;2024-03-23T03:58:26;6.50;99.90
19027;DHT22;9646;52.034;5.554;2024-03-23T04:00:53;6.60;99.90
19027;DHT22;9646;52.034;5.554;2024-03-23T04:03:19;6.60;99.90
19027;DHT22;9646;52.034;5.554;2024-03-23T04:05:51;6.70;99.90
19027;DHT22;9646;52.034;5.554;2024-03-23T04:08:17;6.70;99.90
19027;DHT22;9646;52.034;5.554;2024-03-23T04:10:44;6.60;99.90
19027;DHT22;9646;52.034;5.554;2024-03-23T04:13:10;6.50;99.90
19027;DHT22;9646;52.034;5.554;2024-03-23T04:15:37;6.40;99.90
19027;DHT22;9646;52.034;5.554;2024-03-23T04:18:03;6.40;99.90
19027;DHT22;9646;52.034;5.554;2024-03-23T04:20:29;6.30;99.90
19027;DHT22;9646;52.034;5.554;2024-03-23T04:22:57;6.30;99.90
19027;DHT22;9646;52.034;5.554;2024-03-23T04:25:24;6.20;99.90
19027;DHT22;9646;52.034;5.554;2024-03-23T04:27:50;6.20;99.90
19027;DHT22;9646;52.034;5.554;2024-03-23T04:30:18;6.40;99.90
19027;DHT22;9646;52.034;5.554;2024-03-23T04:32:45;6.30;99.90
19027;DHT22;9646;52.034;5.554;2024-03-23T04:35:11;6.40;99.90
19027;DHT22;9646;52.034;5.554;2024-03-23T04:37:38;6.40;99.90
19027;DHT22;9646;52.034;5.554;2024-03-23T04:40:09;6.20;99.90
19027;DHT22;9646;52.034;5.554;2024-03-23T04:42:38;6.20;99.90
19027;DHT22;9646;52.034;5.554;2024-03-23T04:45:05;6.10;99.90
19027;DHT22;9646;52.034;5.554;2024-03-23T04:47:32;6.10;99.90
19027;DHT22;9646;52.034;5.554;2024-03-23T04:50:01;6.20;99.90
19027;DHT22;9646;52.034;5.554;2024-03-23T04:52:28;6.30;99.90
19027;DHT22;9646;52.034;5.554;2024-03-23T04:54:55;6.30;99.90
19027;DHT22;9646;52.034;5.554;2024-03-23T04:57:22;6.30;99.90
19027;DHT22;9646;52.034;5.554;2024-03-23T04:59:49;6.30;99.90
19027;DHT22;9646;52.034;5.554;2024-03-23T05:02:15;6.30;99.90
19027;DHT22;9646;52.034;5.554;2024-03-23T05:04:42;6.10;99.90
19027;DHT22;9646;52.034;5.554;2024-03-23T05:07:08;6.20;99.90
19027;DHT22;9646;52.034;5.554;2024-03-23T05:09:35;6.10;99.90
19027;DHT22;9646;52.034;5.554;2024-03-23T05:12:01;6.10;99.90
19027;DHT22;9646;52.034;5.554;2024-03-23T05:14:30;6.00;99.90
19027;DHT22;9646;52.034;5.554;2024-03-23T05:16:56;6.00;99.90
19027;DHT22;9646;52.034;5.554;2024-03-23T05:19:23;6.00;99.90
19027;DHT22;9646;52.034;5.554;2024-03-23T05:21:49;6.10;99.90
19027;DHT22;9646;52.034;5.554;2024-03-23T05:24:16;6.20;99.90
19027;DHT22;9646;52.034;5.554;2024-03-23T05:26:42;6.20;99.90
19027;DHT22;9646;52.034;5.554;2024-03-23T05:29:10;6.10;99.90
19027;DHT22;9646;52.034;5.554;2024-03-23T05:31:40;6.20;99.90
19027;DHT22;9646;52.034;5.554;2024-03-23T05:34:08;6.00;99.90
19027;DHT22;9646;52.034;5.554;2024-03-23T05:36:34;5.90;99.90
19027;DHT22;9646;52.034;5.554;2024-03-23T05:39:03;5.90;99.90
19027;DHT22;9646;52.034;5.554;2024-03-23T05:41:28;5.70;99.90
19027;DHT22;9646;52.034;5.554;2024-03-23T05:43:55;5.80;99.90
19027;DHT22;9646;52.034;5.554;2024-03-23T05:46:22;5.90;99.90
19027;DHT22;9646;52.034;5.554;2024-03-23T05:48:53;5.80;99.90
19027;DHT22;9646;52.034;5.554;2024-03-23T05:51:19;6.00;99.90
19027;DHT22;9646;52.034;5.554;2024-03-23T05:53:46;6.00;99.90
19027;DHT22;9646;52.034;5.554;2024-03-23T05:56:12;6.10;99.90
19027;DHT22;9646;52.034;5.554;2024-03-23T05:58:38;6.10;99.90
19027;DHT22;9646;52.034;5.554;2024-03-23T06:01:05;6.30;99.90
19027;DHT22;9646;52.034;5.554;2024-03-23T06:03:33;6.30;99.90
19027;DHT22;9646;52.034;5.554;2024-03-23T06:06:00;6.30;99.90
19027;DHT22;9646;52.034;5.554;2024-03-23T06:08:27;6.20;99.90
19027;DHT22;9646;52.034;5.554;2024-03-23T06:10:52;6.20;99.90
19027;DHT22;9646;52.034;5.554;2024-03-23T06:13:20;6.30;99.90
19027;DHT22;9646;52.034;5.554;2024-03-23T06:15:50;6.30;99.90
19027;DHT22;9646;52.034;5.554;2024-03-23T06:18:17;6.20;99.90
19027;DHT22;9646;52.034;5.554;2024-03-23T06:20:43;6.40;99.90
19027;DHT22;9646;52.034;5.554;2024-03-23T06:23:11;6.40;99.90
19027;DHT22;9646;52.034;5.554;2024-03-23T06:25:38;6.30;99.90
19027;DHT22;9646;52.034;5.554;2024-03-23T06:28:05;6.30;99.90
19027;DHT22;9646;52.034;5.554;2024-03-23T06:30:32;6.40;99.90
19027;DHT22;9646;52.034;5.554;2024-03-23T06:32:59;6.40;99.90
19027;DHT22;9646;52.034;5.554;2024-03-23T06:35:24;6.40;99.90
19027;DHT22;9646;52.034;5.554;2024-03-23T06:37:52;6.40;99.90
19027;DHT22;9646;52.034;5.554;2024-03-23T06:40:20;6.40;99.90
19027;DHT22;9646;52.034;5.554;2024-03-23T06:42:46;6.40;99.90
19027;DHT22;9646;52.034;5.554;2024-03-23T06:45:13;6.50;99.90
19027;DHT22;9646;52.034;5.554;2024-03-23T06:47:39;6.50;99.90
19027;DHT22;9646;52.034;5.554;2024-03-23T06:50:07;6.60;99.90
19027;DHT22;9646;52.034;5.554;2024-03-23T06:52:35;6.80;99.90
19027;DHT22;9646;52.034;5.554;2024-03-23T06:55:02;6.70;99.90
19027;DHT22;9646;52.034;5.554;2024-03-23T06:57:31;6.70;99.90
19027;DHT22;9646;52.034;5.554;2024-03-23T06:59:57;6.90;99.90
19027;DHT22;9646;52.034;5.554;2024-03-23T07:02:24;6.90;99.90
19027;DHT22;9646;52.034;5.554;2024-03-23T07:04:50;7.00;99.90
19027;DHT22;9646;52.034;5.554;2024-03-23T07:07:17;7.00;99.90
19027;DHT22;9646;52.034;5.554;2024-03-23T07:09:43;7.10;99.90
19027;DHT22;9646;52.034;5.554;2024-03-23T07:12:09;7.00;99.90
19027;DHT22;9646;52.034;5.554;2024-03-23T07:14:36;7.20;99.90
19027;DHT22;9646;52.034;5.554;2024-03-23T07:17:04;7.30;99.90
19027;DHT22;9646;52.034;5.554;2024-03-23T07:19:30;7.40;99.90
19027;DHT22;9646;52.034;5.554;2024-03-23T07:21:56;7.30;99.90
19027;DHT22;9646;52.034;5.554;2024-03-23T07:24:22;7.30;99.90
19027;DHT22;9646;52.034;5.554;2024-03-23T07:26:49;7.40;99.90
19027;DHT22;9646;52.034;5.554;2024-03-23T07:29:16;7.40;99.90
19027;DHT22;9646;52.034;5.554;2024-03-23T07:31:45;7.50;99.90
19027;DHT22;9646;52.034;5.554;2024-03-23T07:34:11;7.60;99.90
19027;DHT22;9646;52.034;5.554;2024-03-23T07:36:39;7.70;99.90
19027;DHT22;9646;52.034;5.554;2024-03-23T07:39:05;7.70;99.90
19027;DHT22;9646;52.034;5.554;2024-03-23T07:41:34;7.70;99.90
19027;DHT22;9646;52.034;5.554;2024-03-23T07:44:01;7.70;99.90
19027;DHT22;9646;52.034;5.554;2024-03-23T07:46:27;7.70;99.90
19027;DHT22;9646;52.034;5.554;2024-03-23T07:48:56;7.80;99.90
19027;DHT22;9646;52.034;5.554;2024-03-23T07:51:23;8.00;99.90
19027;DHT22;9646;52.034;5.554;2024-03-23T07:53:49;8.00;99.90
19027;DHT22;9646;52.034;5.554;2024-03-23T07:56:16;8.10;99.90
19027;DHT22;9646;52.034;5.554;2024-03-23T07:58:43;8.10;99.90
19027;DHT22;9646;52.034;5.554;2024-03-23T08:01:12;8.10;99.90
19027;DHT22;9646;52.034;5.554;2024-03-23T08:03:39;8.10;99.90
19027;DHT22;9646;52.034;5.554;2024-03-23T08:06:09;8.20;99.90
19027;DHT22;9646;52.034;5.554;2024-03-23T08:08:35;8.30;99.90
19027;DHT22;9646;52.034;5.554;2024-03-23T08:11:02;8.60;99.90
19027;DHT22;9646;52.034;5.554;2024-03-23T08:13:29;8.70;99.90
19027;DHT22;9646;52.034;5.554;2024-03-23T08:15:59;8.50;99.90
19027;DHT22;9646;52.034;5.554;2024-03-23T08:18:26;8.50;99.90
19027;DHT22;9646;52.034;5.554;2024-03-23T08:20:57;8.50;99.90
19027;DHT22;9646;52.034;5.554;2024-03-23T08:23:24;8.50;99.90
19027;DHT22;9646;52.034;5.554;2024-03-23T08:25:51;8.50;99.90
19027;DHT22;9646;52.034;5.554;2024-03-23T08:28:19;8.40;99.90
19027;DHT22;9646;52.034;5.554;2024-03-23T08:30:46;8.20;99.90
19027;DHT22;9646;52.034;5.554;2024-03-23T08:33:12;8.10;99.90
19027;DHT22;9646;52.034;5.554;2024-03-23T08:35:53;8.10;99.90
19027;DHT22;9646;52.034;5.554;2024-03-23T08:38:20;8.00;99.90
19027;DHT22;9646;52.034;5.554;2024-03-23T08:40:56;8.00;99.90
19027;DHT22;9646;52.034;5.554;2024-03-23T08:43:23;8.00;99.90
19027;DHT22;9646;52.034;5.554;2024-03-23T08:45:50;7.90;99.90
19027;DHT22;9646;52.034;5.554;2024-03-23T08:48:16;7.90;99.90
19027;DHT22;9646;52.034;5.554;2024-03-23T08:50:43;8.00;99.90
19027;DHT22;9646;52.034;5.554;2024-03-23T08:53:09;8.10;99.90
19027;DHT22;9646;52.034;5.554;2024-03-23T08:55:36;8.20;99.90
19027;DHT22;9646;52.034;5.554;2024-03-23T08:58:04;8.10;99.90
19027;DHT22;9646;52.034;5.554;2024-03-23T09:00:34;7.90;99.90
19027;DHT22;9646;52.034;5.554;2024-03-23T09:02:59;8.10;99.90
19027;DHT22;9646;52.034;5.554;2024-03-23T09:05:28;8.40;99.90
19027;DHT22;9646;52.034;5.554;2024-03-23T09:07:54;8.60;99.90
19027;DHT22;9646;52.034;5.554;2024-03-23T09:10:21;8.60;99.90
19027;DHT22;9646;52.034;5.554;2024-03-23T09:12:48;8.80;99.90
19027;DHT22;9646;52.034;5.554;2024-03-23T09:15:20;9.10;99.90
19027;DHT22;9646;52.034;5.554;2024-03-23T09:17:54;9.20;99.90
19027;DHT22;9646;52.034;5.554;2024-03-23T09:20:23;9.40;99.90
19027;DHT22;9646;52.034;5.554;2024-03-23T09:22:49;9.50;99.90
19027;DHT22;9646;52.034;5.554;2024-03-23T09:25:16;9.50;99.90
19027;DHT22;9646;52.034;5.554;2024-03-23T09:27:42;9.70;99.90
19027;DHT22;9646;52.034;5.554;2024-03-23T09:30:09;9.70;99.90
19027;DHT22;9646;52.034;5.554;2024-03-23T09:32:37;9.50;99.90
19027;DHT22;9646;52.034;5.554;2024-03-23T09:35:04;9.90;99.90
19027;DHT22;9646;52.034;5.554;2024-03-23T09:37:30;9.80;99.90
19027;DHT22;9646;52.034;5.554;2024-03-23T09:39:57;9.50;99.90
19027;DHT22;9646;52.034;5.554;2024-03-23T09:42:23;9.00;99.90
19027;DHT22;9646;52.034;5.554;2024-03-23T09:44:51;8.80;99.90
19027;DHT22;9646;52.034;5.554;2024-03-23T09:47:17;8.10;99.90
19027;DHT22;9646;52.034;5.554;2024-03-23T09:49:45;7.30;99.90
19027;DHT22;9646;52.034;5.554;2024-03-23T09:52:11;7.30;99.90
19027;DHT22;9646;52.034;5.554;2024-03-23T09:54:38;7.20;99.90
19027;DHT22;9646;52.034;5.554;2024-03-23T09:57:04;7.50;99.90
19027;DHT22;9646;52.034;5.554;2024-03-23T09:59:33;7.80;99.90
19027;DHT22;9646;52.034;5.554;2024-03-23T10:01:59;8.20;99.90
19027;DHT22;9646;52.034;5.554;2024-03-23T10:04:40;8.60;99.90
19027;DHT22;9646;52.034;5.554;2024-03-23T10:07:14;8.70;99.90
19027;DHT22;9646;52.034;5.554;2024-03-23T10:09:42;8.50;99.90
19027;DHT22;9646;52.034;5.554;2024-03-23T10:12:09;8.40;99.90
19027;DHT22;9646;52.034;5.554;2024-03-23T10:14:37;8.30;99.90
19027;DHT22;9646;52.034;5.554;2024-03-23T10:17:15;8.30;99.90
19027;DHT22;9646;52.034;5.554;2024-03-23T10:19:44;8.50;99.90
19027;DHT22;9646;52.034;5.554;2024-03-23T10:22:18;8.80;99.90
19027;DHT22;9646;52.034;5.554;2024-03-23T10:24:45;9.00;99.90
19027;DHT22;9646;52.034;5.554;2024-03-23T10:27:15;9.10;99.90
19027;DHT22;9646;52.034;5.554;2024-03-23T10:29:43;9.10;99.90
19027;DHT22;9646;52.034;5.554;2024-03-23T10:32:10;9.10;99.90
19027;DHT22;9646;52.034;5.554;2024-03-23T10:34:38;8.80;99.90
19027;DHT22;9646;52.034;5.554;2024-03-23T10:37:05;8.80;99.90
19027;DHT22;9646;52.034;5.554;2024-03-23T10:39:36;8.70;99.90
19027;DHT22;9646;52.034;5.554;2024-03-23T10:42:03;8.80;99.90
19027;DHT22;9646;52.034;5.554;2024-03-23T10:44:30;8.80;99.90
19027;DHT22;9646;52.034;5.554;2024-03-23T10:46:57;8.90;99.90
19027;DHT22;9646;52.034;5.554;2024-03-23T10:49:28;9.00;99.90
19027;DHT22;9646;52.034;5.554;2024-03-23T10:51:59;9.20;99.90
19027;DHT22;9646;52.034;5.554;2024-03-23T10:54:26;9.50;99.90
19027;DHT22;9646;52.034;5.554;2024-03-23T10:57:03;9.40;99.90
19027;DHT22;9646;52.034;5.554;2024-03-23T10:59:31;9.30;99.90
19027;DHT22;9646;52.034;5.554;2024-03-23T11:01:59;9.20;99.90
19027;DHT22;9646;52.034;5.554;2024-03-23T11:04:35;9.30;99.90
19027;DHT22;9646;52.034;5.554;2024-03-23T11:07:01;8.00;99.90
19027;DHT22;9646;52.034;5.554;2024-03-23T11:09:41;7.00;99.90
19027;DHT22;9646;52.034;5.554;2024-03-23T11:12:26;6.80;99.90
19027;DHT22;9646;52.034;5.554;2024-03-23T11:14:55;7.30;99.90
19027;DHT22;9646;52.034;5.554;2024-03-23T11:17:22;7.60;99.90
19027;DHT22;9646;52.034;5.554;2024-03-23T11:19:57;8.00;99.90
19027;DHT22;9646;52.034;5.554;2024-03-23T11:22:39;8.40;99.90
19027;DHT22;9646;52.034;5.554;2024-03-23T11:25:16;8.70;99.90
19027;DHT22;9646;52.034;5.554;2024-03-23T11:27:44;8.70;99.90
19027;DHT22;9646;52.034;5.554;2024-03-23T11:30:17;7.90;99.90
19027;DHT22;9646;52.034;5.554;2024-03-23T11:32:44;7.80;99.90
19027;DHT22;9646;52.034;5.554;2024-03-23T11:35:28;7.70;99.90
19027;DHT22;9646;52.034;5.554;2024-03-23T11:38:07;7.50;99.90
19027;DHT22;9646;52.034;5.554;2024-03-23T11:40:35;7.40;99.90
19027;DHT22;9646;52.034;5.554;2024-03-23T11:43:04;7.40;99.90
19027;DHT22;9646;52.034;5.554;2024-03-23T11:45:34;7.40;99.90
19027;DHT22;9646;52.034;5.554;2024-03-23T11:48:05;7.30;99.90
19027;DHT22;9646;52.034;5.554;2024-03-23T11:50:33;7.40;99.90
19027;DHT22;9646;52.034;5.554;2024-03-23T11:53:09;7.30;99.90
19027;DHT22;9646;52.034;5.554;2024-03-23T11:55:49;7.50;99.90
19027;DHT22;9646;52.034;5.554;2024-03-23T11:58:18;8.00;99.90
19027;DHT22;9646;52.034;5.554;2024-03-23T12:00:52;8.50;99.90
19027;DHT22;9646;52.034;5.554;2024-03-23T12:03:19;9.00;99.90
19027;DHT22;9646;52.034;5.554;2024-03-23T12:05:51;9.70;99.90
19027;DHT22;9646;52.034;5.554;2024-03-23T12:08:20;10.00;99.90
19027;DHT22;9646;52.034;5.554;2024-03-23T12:10:49;10.20;99.90
19027;DHT22;9646;52.034;5.554;2024-03-23T12:13:19;9.80;99.90
19027;DHT22;9646;52.034;5.554;2024-03-23T12:15:46;10.00;99.90
19027;DHT22;9646;52.034;5.554;2024-03-23T12:18:13;10.30;99.90
19027;DHT22;9646;52.034;5.554;2024-03-23T12:20:40;10.30;99.90
19027;DHT22;9646;52.034;5.554;2024-03-23T12:23:10;10.80;99.90
19027;DHT22;9646;52.034;5.554;2024-03-23T12:25:38;10.90;99.90
19027;DHT22;9646;52.034;5.554;2024-03-23T12:28:04;10.90;99.90
19027;DHT22;9646;52.034;5.554;2024-03-23T12:30:35;10.00;99.90
19027;DHT22;9646;52.034;5.554;2024-03-23T12:33:02;9.50;99.90
19027;DHT22;9646;52.034;5.554;2024-03-23T12:35:30;9.70;99.90
19027;DHT22;9646;52.034;5.554;2024-03-23T12:37:56;10.30;99.90
19027;DHT22;9646;52.034;5.554;2024-03-23T12:40:23;10.70;99.90
19027;DHT22;9646;52.034;5.554;2024-03-23T12:42:48;11.00;99.90
19027;DHT22;9646;52.034;5.554;2024-03-23T12:45:15;11.20;99.90
19027;DHT22;9646;52.034;5.554;2024-03-23T12:47:43;11.10;99.90
19027;DHT22;9646;52.034;5.554;2024-03-23T12:50:10;10.60;99.90
19027;DHT22;9646;52.034;5.554;2024-03-23T12:52:36;10.10;99.90
19027;DHT22;9646;52.034;5.554;2024-03-23T12:55:04;9.90;99.90
19027;DHT22;9646;52.034;5.554;2024-03-23T12:57:31;9.80;99.90
19027;DHT22;9646;52.034;5.554;2024-03-23T12:59:58;10.00;99.90
19027;DHT22;9646;52.034;5.554;2024-03-23T13:02:24;10.40;99.90
19027;DHT22;9646;52.034;5.554;2024-03-23T13:04:55;10.50;99.90
19027;DHT22;9646;52.034;5.554;2024-03-23T13:07:21;10.30;99.90
19027;DHT22;9646;52.034;5.554;2024-03-23T13:09:50;10.60;99.90
19027;DHT22;9646;52.034;5.554;2024-03-23T13:12:16;11.10;99.90
19027;DHT22;9646;52.034;5.554;2024-03-23T13:14:44;11.40;99.90
19027;DHT22;9646;52.034;5.554;2024-03-23T13:17:10;10.90;99.90
19027;DHT22;9646;52.034;5.554;2024-03-23T13:19:37;10.10;99.90
19027;DHT22;9646;52.034;5.554;2024-03-23T13:22:04;10.30;99.90
19027;DHT22;9646;52.034;5.554;2024-03-23T13:24:31;9.90;99.90
19027;DHT22;9646;52.034;5.554;2024-03-23T13:26:58;9.70;99.90
19027;DHT22;9646;52.034;5.554;2024-03-23T13:29:25;9.50;99.90
19027;DHT22;9646;52.034;5.554;2024-03-23T13:31:52;9.20;99.90
19027;DHT22;9646;52.034;5.554;2024-03-23T13:34:19;9.40;99.90
19027;DHT22;9646;52.034;5.554;2024-03-23T13:36:45;9.50;99.90
19027;DHT22;9646;52.034;5.554;2024-03-23T13:39:14;9.30;99.90
19027;DHT22;9646;52.034;5.554;2024-03-23T13:41:42;9.10;99.90
19027;DHT22;9646;52.034;5.554;2024-03-23T13:44:09;9.20;99.90
19027;DHT22;9646;52.034;5.554;2024-03-23T13:46:36;9.10;99.90
19027;DHT22;9646;52.034;5.554;2024-03-23T13:49:03;8.70;99.90
19027;DHT22;9646;52.034;5.554;2024-03-23T13:51:29;8.70;99.90
19027;DHT22;9646;52.034;5.554;2024-03-23T13:53:56;8.60;99.90
19027;DHT22;9646;52.034;5.554;2024-03-23T13:56:24;9.20;99.90
19027;DHT22;9646;52.034;5.554;2024-03-23T13:58:51;9.70;99.90
19027;DHT22;9646;52.034;5.554;2024-03-23T14:01:17;10.60;99.90
19027;DHT22;9646;52.034;5.554;2024-03-23T14:03:44;11.10;99.90
19027;DHT22;9646;52.034;5.554;2024-03-23T14:06:10;10.10;99.90
19027;DHT22;9646;52.034;5.554;2024-03-23T14:08:37;9.50;99.90
19027;DHT22;9646;52.034;5.554;2024-03-23T14:11:05;9.20;99.90
19027;DHT22;9646;52.034;5.554;2024-03-23T14:13:33;8.20;99.90
19027;DHT22;9646;52.034;5.554;2024-03-23T14:15:59;8.20;99.90
19027;DHT22;9646;52.034;5.554;2024-03-23T14:18:26;8.10;99.90
19027;DHT22;9646;52.034;5.554;2024-03-23T14:20:52;8.30;99.90
19027;DHT22;9646;52.034;5.554;2024-03-23T14:23:24;8.80;99.90
19027;DHT22;9646;52.034;5.554;2024-03-23T14:25:52;9.50;99.90
19027;DHT22;9646;52.034;5.554;2024-03-23T14:28:19;9.70;99.90
19027;DHT22;9646;52.034;5.554;2024-03-23T14:30:47;10.60;99.90
19027;DHT22;9646;52.034;5.554;2024-03-23T14:33:13;11.80;99.90
19027;DHT22;9646;52.034;5.554;2024-03-23T14:35:39;12.50;99.90
19027;DHT22;9646;52.034;5.554;2024-03-23T14:38:06;13.30;99.90
19027;DHT22;9646;52.034;5.554;2024-03-23T14:40:33;14.50;99.90
19027;DHT22;9646;52.034;5.554;2024-03-23T14:42:59;14.30;99.90
19027;DHT22;9646;52.034;5.554;2024-03-23T14:45:25;13.90;99.90
19027;DHT22;9646;52.034;5.554;2024-03-23T14:47:54;13.90;99.90
19027;DHT22;9646;52.034;5.554;2024-03-23T14:50:20;15.00;99.90
19027;DHT22;9646;52.034;5.554;2024-03-23T14:52:47;15.10;99.90
19027;DHT22;9646;52.034;5.554;2024-03-23T14:55:13;15.40;99.90
19027;DHT22;9646;52.034;5.554;2024-03-23T14:57:40;16.70;99.90
19027;DHT22;9646;52.034;5.554;2024-03-23T15:00:07;15.20;99.90
19027;DHT22;9646;52.034;5.554;2024-03-23T15:02:38;13.70;99.90
19027;DHT22;9646;52.034;5.554;2024-03-23T15:05:06;12.40;99.90
19027;DHT22;9646;52.034;5.554;2024-03-23T15:07:35;13.10;99.90
19027;DHT22;9646;52.034;5.554;2024-03-23T15:10:01;13.70;99.90
19027;DHT22;9646;52.034;5.554;2024-03-23T15:12:31;13.50;99.90
19027;DHT22;9646;52.034;5.554;2024-03-23T15:14:58;15.30;99.90
19027;DHT22;9646;52.034;5.554;2024-03-23T15:17:25;15.40;99.90
19027;DHT22;9646;52.034;5.554;2024-03-23T15:19:51;15.80;99.90
19027;DHT22;9646;52.034;5.554;2024-03-23T15:22:20;16.60;99.90
19027;DHT22;9646;52.034;5.554;2024-03-23T15:24:47;16.60;99.90
19027;DHT22;9646;52.034;5.554;2024-03-23T15:27:14;16.60;99.90
19027;DHT22;9646;52.034;5.554;2024-03-23T15:29:40;16.50;99.90
19027;DHT22;9646;52.034;5.554;2024-03-23T15:32:10;16.60;99.90
19027;DHT22;9646;52.034;5.554;2024-03-23T15:34:36;18.20;99.90
19027;DHT22;9646;52.034;5.554;2024-03-23T15:37:03;17.80;99.90
19027;DHT22;9646;52.034;5.554;2024-03-23T15:39:31;17.40;99.90
19027;DHT22;9646;52.034;5.554;2024-03-23T15:41:58;18.40;99.90
19027;DHT22;9646;52.034;5.554;2024-03-23T15:44:24;19.80;99.90
19027;DHT22;9646;52.034;5.554;2024-03-23T15:46:50;19.50;99.90
19027;DHT22;9646;52.034;5.554;2024-03-23T15:49:16;19.10;99.90
19027;DHT22;9646;52.034;5.554;2024-03-23T15:51:43;18.30;99.90
19027;DHT22;9646;52.034;5.554;2024-03-23T15:54:09;18.90;99.90
19027;DHT22;9646;52.034;5.554;2024-03-23T15:56:38;18.40;99.90
19027;DHT22;9646;52.034;5.554;2024-03-23T15:59:04;16.90;99.90
19027;DHT22;9646;52.034;5.554;2024-03-23T16:01:32;16.50;99.90
19027;DHT22;9646;52.034;5.554;2024-03-23T16:03:59;16.00;99.90
19027;DHT22;9646;52.034;5.554;2024-03-23T16:06:26;14.20;99.90
19027;DHT22;9646;52.034;5.554;2024-03-23T16:08:52;12.80;99.90
19027;DHT22;9646;52.034;5.554;2024-03-23T16:11:19;13.90;99.90
19027;DHT22;9646;52.034;5.554;2024-03-23T16:13:49;16.10;99.90
19027;DHT22;9646;52.034;5.554;2024-03-23T16:16:15;18.10;99.90
19027;DHT22;9646;52.034;5.554;2024-03-23T16:18:42;17.90;99.90
19027;DHT22;9646;52.034;5.554;2024-03-23T16:21:09;18.40;99.90
19027;DHT22;9646;52.034;5.554;2024-03-23T16:23:36;19.30;99.90
19027;DHT22;9646;52.034;5.554;2024-03-23T16:26:04;19.20;99.90
19027;DHT22;9646;52.034;5.554;2024-03-23T16:28:31;16.60;99.90
19027;DHT22;9646;52.034;5.554;2024-03-23T16:31:00;15.40;99.90
19027;DHT22;9646;52.034;5.554;2024-03-23T16:33:27;15.00;99.90
19027;DHT22;9646;52.034;5.554;2024-03-23T16:36:00;14.20;99.90
19027;DHT22;9646;52.034;5.554;2024-03-23T16:38:28;13.40;99.90
19027;DHT22;9646;52.034;5.554;2024-03-23T16:40:59;12.40;99.90
19027;DHT22;9646;52.034;5.554;2024-03-23T16:43:28;11.30;99.90
19027;DHT22;9646;52.034;5.554;2024-03-23T16:45:57;10.30;99.90
19027;DHT22;9646;52.034;5.554;2024-03-23T16:48:26;10.10;99.90
19027;DHT22;9646;52.034;5.554;2024-03-23T16:50:56;9.70;99.90
19027;DHT22;9646;52.034;5.554;2024-03-23T16:53:22;9.20;99.90